createdAt,value
2023-05-23T00:02:16.976Z,16.50
2023-05-23T00:04:44.997Z,13.00
2023-05-23T00:07:14.407Z,12.35
2023-05-23T00:09:42.363Z,14.05
2023-05-23T00:12:10.533Z,14.95
2023-05-23T00:14:40.343Z,13.93
2023-05-23T00:17:10.734Z,14.50
2023-05-23T00:19:38.949Z,12.52
2023-05-23T00:22:07.095Z,13.65
2023-05-23T00:24:36.473Z,15.00
2023-05-23T00:27:04.706Z,13.52
2023-05-23T00:29:32.703Z,16.52
2023-05-23T00:32:00.677Z,16.05
2023-05-23T00:34:28.712Z,23.58
2023-05-23T00:36:58.300Z,19.77
2023-05-23T00:39:26.330Z,17.15
2023-05-23T00:41:56.306Z,15.23
2023-05-23T00:44:24.543Z,15.88
2023-05-23T00:46:56.057Z,16.47
2023-05-23T00:49:24.450Z,20.20
2023-05-23T00:51:53.567Z,20.77
2023-05-23T00:54:27.488Z,22.70
2023-05-23T00:56:57.122Z,13.47
2023-05-23T00:59:26.520Z,13.23
2023-05-23T01:01:57.388Z,16.05
2023-05-23T01:04:26.857Z,22.48
2023-05-23T01:06:56.247Z,15.00
2023-05-23T01:09:26.048Z,17.70
2023-05-23T01:12:04.982Z,14.63
2023-05-23T01:14:39.127Z,17.02
2023-05-23T01:17:17.133Z,12.02
2023-05-23T01:19:56.883Z,19.20
2023-05-23T01:22:39.556Z,14.88
2023-05-23T01:25:14.652Z,17.57
2023-05-23T01:27:50.411Z,19.47
2023-05-23T01:30:21.803Z,16.65
2023-05-23T01:32:54.641Z,22.33
2023-05-23T01:35:26.549Z,15.83
2023-05-23T01:37:54.788Z,18.90
2023-05-23T01:40:23.589Z,13.67
2023-05-23T01:42:55.212Z,17.27
2023-05-23T01:45:24.654Z,17.73
2023-05-23T01:47:52.798Z,21.50
2023-05-23T01:50:21.396Z,13.82
2023-05-23T01:52:50.003Z,21.45
2023-05-23T01:55:22.815Z,15.35
2023-05-23T01:57:54.987Z,14.02
2023-05-23T02:00:23.348Z,14.15
2023-05-23T02:02:51.485Z,13.05
2023-05-23T02:05:19.714Z,16.40
2023-05-23T02:07:47.750Z,18.60
2023-05-23T02:10:15.742Z,15.25
2023-05-23T02:12:43.774Z,15.03
2023-05-23T02:15:13.343Z,16.17
2023-05-23T02:17:43.062Z,22.90
2023-05-23T02:20:11.866Z,15.13
2023-05-23T02:22:40.258Z,14.75
2023-05-23T02:25:09.288Z,14.60
2023-05-23T02:27:37.267Z,17.27
2023-05-23T02:30:05.880Z,19.45
2023-05-23T02:32:35.228Z,16.07
2023-05-23T02:35:03.257Z,23.37
2023-05-23T02:37:31.337Z,15.43
2023-05-23T02:39:59.310Z,14.37
2023-05-23T02:42:27.307Z,17.93
2023-05-23T02:44:55.378Z,16.20
2023-05-23T02:47:23.454Z,17.47
2023-05-23T02:49:52.842Z,18.13
2023-05-23T02:52:21.055Z,17.03
2023-05-23T02:54:49.067Z,14.50
2023-05-23T02:57:17.096Z,16.63
2023-05-23T02:59:45.157Z,16.43
2023-05-23T03:02:13.242Z,13.57
2023-05-23T03:04:41.353Z,16.33
2023-05-23T03:07:20.356Z,15.23
2023-05-23T03:09:52.500Z,16.80
2023-05-23T03:12:20.969Z,16.10
2023-05-23T03:14:49.002Z,13.97
2023-05-23T03:17:17.290Z,17.77
2023-05-23T03:19:45.372Z,15.83
2023-05-23T03:22:14.807Z,18.33
2023-05-23T03:24:43.163Z,14.23
2023-05-23T03:27:11.240Z,17.47
2023-05-23T03:29:39.311Z,15.93
2023-05-23T03:32:08.117Z,15.17
2023-05-23T03:34:36.694Z,13.20
2023-05-23T03:37:04.870Z,16.53
2023-05-23T03:39:34.291Z,17.37
2023-05-23T03:42:02.552Z,20.70
2023-05-23T03:44:30.600Z,15.47
2023-05-23T03:46:58.676Z,18.83
2023-05-23T03:49:27.009Z,15.17
2023-05-23T03:51:55.028Z,19.05
2023-05-23T03:54:23.109Z,15.33
2023-05-23T03:56:52.627Z,19.47
2023-05-23T03:59:20.674Z,13.18
2023-05-23T04:01:48.797Z,14.80
2023-05-23T04:04:17.480Z,18.02
2023-05-23T04:06:45.661Z,20.63
2023-05-23T04:09:14.463Z,16.92
2023-05-23T04:11:42.600Z,14.88
2023-05-23T04:14:12.561Z,16.55
2023-05-23T04:16:41.942Z,16.55
2023-05-23T04:19:10.169Z,22.40
2023-05-23T04:21:38.222Z,21.17
2023-05-23T04:24:06.751Z,16.13
2023-05-23T04:26:36.282Z,18.27
2023-05-23T04:29:06.259Z,15.77
2023-05-23T04:31:35.925Z,18.00
2023-05-23T04:34:04.049Z,17.02
2023-05-23T04:36:32.098Z,16.40
2023-05-23T04:39:00.096Z,15.95
2023-05-23T04:41:28.383Z,18.27
2023-05-23T04:43:58.476Z,20.75
2023-05-23T04:46:27.301Z,22.58
2023-05-23T04:48:58.805Z,22.42
2023-05-23T04:51:27.372Z,17.92
2023-05-23T04:53:55.475Z,24.40
2023-05-23T04:56:28.348Z,22.98
2023-05-23T04:58:57.120Z,21.52
2023-05-23T05:01:25.147Z,19.55
2023-05-23T05:03:53.709Z,18.42
2023-05-23T05:06:23.625Z,20.67
2023-05-23T05:08:51.612Z,16.75
2023-05-23T05:11:19.712Z,19.00
2023-05-23T05:13:47.746Z,13.50
2023-05-23T05:16:15.736Z,19.75
2023-05-23T05:18:43.788Z,16.33
2023-05-23T05:21:11.778Z,16.02
2023-05-23T05:23:41.101Z,15.80
2023-05-23T05:26:09.333Z,15.38
2023-05-23T05:28:38.282Z,17.52
2023-05-23T05:31:06.545Z,16.75
2023-05-23T05:33:36.390Z,17.33
2023-05-23T05:36:05.105Z,14.55
2023-05-23T05:38:33.093Z,13.73
2023-05-23T05:41:02.559Z,16.00
2023-05-23T05:43:30.557Z,20.23
2023-05-23T05:45:58.574Z,17.27
2023-05-23T05:48:26.630Z,20.85
2023-05-23T05:50:54.686Z,15.00
2023-05-23T05:53:22.748Z,16.23
2023-05-23T05:55:50.781Z,19.92
2023-05-23T05:58:20.171Z,15.70
2023-05-23T06:00:49.102Z,15.10
2023-05-23T06:03:17.418Z,14.65
2023-05-23T06:05:45.450Z,14.02
2023-05-23T06:08:13.500Z,17.08
2023-05-23T06:10:41.915Z,13.57
2023-05-23T06:13:10.147Z,17.73
2023-05-23T06:15:39.514Z,16.83
2023-05-23T06:18:07.704Z,14.05
2023-05-23T06:20:35.802Z,15.23
2023-05-23T06:23:05.661Z,19.15
2023-05-23T06:25:33.838Z,20.42
2023-05-23T06:28:01.982Z,17.33
2023-05-23T06:30:30.603Z,19.17
2023-05-23T06:33:00.155Z,15.00
2023-05-23T06:35:28.201Z,15.23
2023-05-23T06:37:56.199Z,15.13
2023-05-23T06:40:24.262Z,20.90
2023-05-23T06:42:52.359Z,15.48
2023-05-23T06:45:20.424Z,18.60
2023-05-23T06:47:49.428Z,18.90
2023-05-23T06:50:20.041Z,14.93
2023-05-23T06:52:48.254Z,19.92
2023-05-23T06:55:19.406Z,17.73
2023-05-23T06:57:50.545Z,14.13
2023-05-23T07:00:19.312Z,21.15
2023-05-23T07:02:48.766Z,18.25
2023-05-23T07:05:18.681Z,14.20
2023-05-23T07:07:46.734Z,15.70
2023-05-23T07:10:14.746Z,14.15
2023-05-23T07:12:43.185Z,15.90
2023-05-23T07:15:13.750Z,16.30
2023-05-23T07:17:42.043Z,15.45
2023-05-23T07:20:10.870Z,17.17
2023-05-23T07:22:40.404Z,14.55
2023-05-23T07:25:09.549Z,14.63
2023-05-23T07:27:37.554Z,17.50
2023-05-23T07:30:06.866Z,14.68
2023-05-23T07:32:34.919Z,14.98
2023-05-23T07:35:03.213Z,19.83
2023-05-23T07:37:31.258Z,14.52
2023-05-23T07:40:00.642Z,15.27
2023-05-23T07:42:28.624Z,17.23
2023-05-23T07:44:56.642Z,12.10
2023-05-23T07:47:25.168Z,21.80
2023-05-23T07:49:53.236Z,15.63
2023-05-23T07:52:21.297Z,16.67
2023-05-23T07:54:49.282Z,16.58
2023-05-23T07:57:18.852Z,17.73
2023-05-23T07:59:46.918Z,16.48
2023-05-23T08:02:14.947Z,20.98
2023-05-23T08:04:43.064Z,19.70
2023-05-23T08:07:11.609Z,19.30
2023-05-23T08:09:40.312Z,16.05
2023-05-23T08:12:08.561Z,13.50
2023-05-23T08:14:49.762Z,14.18
2023-05-23T08:17:20.179Z,13.40
2023-05-23T08:19:48.427Z,15.05
2023-05-23T08:22:16.484Z,20.00
2023-05-23T08:24:44.533Z,15.32
2023-05-23T08:27:12.604Z,16.88
2023-05-23T08:29:42.940Z,12.32
2023-05-23T08:32:11.240Z,14.63
2023-05-23T08:34:39.360Z,16.63
2023-05-23T08:37:07.615Z,13.18
2023-05-23T08:39:35.996Z,14.18
2023-05-23T08:42:04.170Z,15.35
2023-05-23T08:44:32.410Z,14.30
2023-05-23T08:47:06.572Z,11.30
2023-05-23T08:49:35.204Z,11.65
2023-05-23T08:52:04.679Z,10.15
2023-05-23T08:54:34.040Z,12.95
2023-05-23T08:57:03.004Z,11.82
2023-05-23T08:59:33.083Z,10.70
2023-05-23T09:02:08.047Z,10.05
2023-05-23T09:04:36.344Z,8.75
2023-05-23T09:07:05.120Z,10.63
2023-05-23T09:09:34.138Z,10.15
2023-05-23T09:12:03.394Z,9.48
2023-05-23T09:14:32.157Z,12.38
2023-05-23T09:17:04.787Z,18.67
2023-05-23T09:19:33.765Z,10.25
2023-05-23T09:22:03.960Z,9.68
2023-05-23T09:24:38.339Z,10.30
2023-05-23T09:27:07.670Z,10.05
2023-05-23T09:29:38.940Z,12.73
2023-05-23T09:32:18.870Z,12.52
2023-05-23T09:35:05.345Z,14.85
2023-05-23T09:37:34.339Z,12.63
2023-05-23T09:40:06.855Z,13.90
2023-05-23T09:42:35.305Z,11.88
2023-05-23T09:45:04.820Z,11.88
2023-05-23T09:47:34.745Z,10.95
2023-05-23T09:50:03.120Z,12.30
2023-05-23T09:52:37.558Z,10.68
2023-05-23T09:55:06.903Z,8.35
2023-05-23T09:57:37.207Z,12.68
2023-05-23T10:00:08.650Z,9.43
2023-05-23T10:03:02.857Z,9.85
2023-05-23T10:05:37.419Z,12.40
2023-05-23T10:08:11.939Z,11.30
2023-05-23T10:11:44.362Z,8.85
2023-05-23T10:14:13.468Z,8.10
2023-05-23T10:16:51.026Z,12.75
2023-05-23T10:19:26.418Z,9.88
2023-05-23T10:22:00.597Z,9.20
2023-05-23T10:24:28.846Z,15.02
2023-05-23T10:26:57.718Z,13.23
2023-05-23T10:29:26.296Z,9.48
2023-05-23T10:31:56.470Z,12.05
2023-05-23T10:34:32.463Z,7.95
2023-05-23T10:37:04.220Z,16.38
2023-05-23T10:39:47.638Z,11.32
2023-05-23T10:42:21.771Z,9.23
2023-05-23T10:44:49.851Z,9.10
2023-05-23T10:47:28.752Z,12.45
2023-05-23T10:49:58.181Z,15.00
2023-05-23T10:52:27.662Z,15.43
2023-05-23T10:54:56.897Z,12.00
2023-05-23T10:57:28.706Z,8.88
2023-05-23T10:59:56.892Z,9.30
2023-05-23T11:02:28.043Z,8.77
2023-05-23T11:05:22.464Z,14.02
2023-05-23T11:08:08.891Z,9.10
2023-05-23T11:10:55.150Z,13.40
2023-05-23T11:13:24.455Z,11.05
2023-05-23T11:15:53.182Z,10.48
2023-05-23T11:18:23.130Z,10.85
2023-05-23T11:20:54.774Z,9.75
2023-05-23T11:23:23.705Z,10.25
2023-05-23T11:25:53.910Z,13.40
2023-05-23T11:28:24.020Z,14.15
2023-05-23T11:30:52.520Z,15.23
2023-05-23T11:33:21.119Z,13.02
2023-05-23T11:35:51.881Z,11.50
2023-05-23T11:38:21.473Z,9.93
2023-05-23T11:40:49.566Z,12.27
2023-05-23T11:43:19.851Z,15.45
2023-05-23T11:45:48.117Z,11.80
2023-05-23T11:48:18.094Z,10.05
2023-05-23T11:50:48.414Z,10.77
2023-05-23T11:53:20.742Z,10.85
2023-05-23T11:55:55.005Z,14.57
2023-05-23T11:58:24.172Z,9.57
2023-05-23T12:00:55.043Z,13.80
2023-05-23T12:03:23.573Z,11.23
2023-05-23T12:05:51.814Z,11.90
2023-05-23T12:08:19.821Z,10.43
2023-05-23T12:10:54.371Z,8.85
2023-05-23T12:13:25.776Z,9.10
2023-05-23T12:15:56.164Z,12.32
2023-05-23T12:18:24.533Z,13.05
2023-05-23T12:20:53.197Z,13.27
2023-05-23T12:23:22.068Z,8.52
2023-05-23T12:25:55.101Z,9.85
2023-05-23T12:28:35.849Z,49.83
2023-05-23T12:31:12.225Z,23.83
2023-05-23T12:33:41.298Z,28.08
2023-05-23T12:36:09.395Z,23.48
2023-05-23T12:38:40.895Z,30.98
2023-05-23T12:41:11.979Z,18.95
2023-05-23T12:43:40.731Z,27.17
2023-05-23T12:46:09.327Z,15.45
2023-05-23T12:48:37.494Z,15.80
2023-05-23T12:51:06.059Z,16.83
2023-05-23T12:53:34.067Z,16.58
2023-05-23T12:56:02.139Z,15.00
2023-05-23T12:58:32.350Z,12.85
2023-05-23T13:01:00.843Z,17.42
2023-05-23T13:03:29.814Z,14.52
2023-05-23T13:05:58.091Z,14.68
2023-05-23T13:08:26.171Z,13.50
2023-05-23T13:10:55.032Z,19.75
2023-05-23T13:13:23.627Z,16.13
2023-05-23T13:15:53.152Z,13.80
2023-05-23T13:18:21.234Z,13.85
2023-05-23T13:20:49.237Z,11.10
2023-05-23T13:23:17.303Z,10.25
2023-05-23T13:25:45.373Z,8.95
2023-05-23T13:28:13.744Z,10.73
2023-05-23T13:30:44.174Z,9.13
2023-05-23T13:33:15.589Z,11.38
2023-05-23T13:35:44.319Z,9.80
2023-05-23T13:38:12.764Z,10.13
2023-05-23T13:40:41.061Z,11.68
2023-05-23T13:43:09.351Z,12.77
2023-05-23T13:45:37.371Z,9.90
2023-05-23T13:48:05.653Z,9.00
2023-05-23T13:50:35.031Z,8.38
2023-05-23T13:53:03.054Z,10.40
2023-05-23T13:55:31.591Z,7.80
2023-05-23T13:57:59.607Z,8.85
2023-05-23T14:00:27.579Z,10.20
2023-05-23T14:02:55.601Z,9.77
2023-05-23T14:05:23.637Z,8.00
2023-05-23T14:07:53.271Z,9.20
2023-05-23T14:10:21.318Z,9.98
2023-05-23T14:12:49.372Z,8.00
2023-05-23T14:15:17.829Z,9.20
2023-05-23T14:17:45.895Z,8.10
2023-05-23T14:20:14.637Z,14.25
2023-05-23T14:22:42.635Z,9.75
2023-05-23T14:25:12.285Z,9.30
2023-05-23T14:27:40.483Z,11.98
2023-05-23T14:30:09.732Z,9.60
2023-05-23T14:32:39.202Z,10.95
2023-05-23T14:35:08.871Z,9.57
2023-05-23T14:37:37.061Z,11.70
2023-05-23T14:40:05.563Z,13.02
2023-05-23T14:42:34.930Z,13.18
2023-05-23T14:45:03.118Z,12.73
2023-05-23T14:47:32.138Z,13.32
2023-05-23T14:50:00.239Z,12.15
2023-05-23T14:52:28.322Z,14.48
2023-05-23T14:54:56.374Z,12.50
2023-05-23T14:57:24.639Z,9.40
2023-05-23T14:59:54.043Z,11.95
2023-05-23T15:02:22.039Z,12.57
2023-05-23T15:04:50.070Z,10.68
2023-05-23T15:07:18.408Z,10.68
2023-05-23T15:09:47.796Z,11.60
2023-05-23T15:12:16.298Z,11.38
2023-05-23T15:14:44.747Z,10.07
2023-05-23T15:17:19.887Z,11.27
2023-05-23T15:19:48.070Z,11.77
2023-05-23T15:22:34.257Z,10.07
2023-05-23T15:25:04.559Z,12.35
2023-05-23T15:27:32.543Z,11.52
2023-05-23T15:30:00.663Z,13.27
2023-05-23T15:32:30.169Z,13.70
2023-05-23T15:34:58.346Z,13.75
2023-05-23T15:37:26.327Z,18.95
2023-05-23T15:39:54.325Z,19.55
2023-05-23T15:42:22.368Z,15.40
2023-05-23T15:44:51.066Z,17.13
2023-05-23T15:47:20.713Z,16.23
2023-05-23T15:49:50.139Z,16.35
2023-05-23T15:52:18.126Z,13.23
2023-05-23T15:54:46.226Z,13.15
2023-05-23T15:57:14.277Z,9.70
2023-05-23T15:59:42.241Z,11.73
2023-05-23T16:02:10.780Z,10.63
2023-05-23T16:04:39.047Z,12.77
2023-05-23T16:07:08.720Z,12.00
2023-05-23T16:09:36.875Z,10.20
2023-05-23T16:12:05.143Z,10.50
2023-05-23T16:14:33.153Z,10.63
2023-05-23T16:17:02.838Z,11.48
2023-05-23T16:19:30.974Z,12.05
2023-05-23T16:21:59.126Z,8.95
2023-05-23T16:24:28.741Z,11.35
2023-05-23T16:26:56.781Z,8.73
2023-05-23T16:29:24.812Z,9.38
2023-05-23T16:31:52.875Z,14.15
2023-05-23T16:34:20.926Z,14.02
2023-05-23T16:36:48.926Z,14.25
2023-05-23T16:39:16.940Z,12.88
2023-05-23T16:41:46.338Z,17.65
2023-05-23T16:44:14.422Z,12.60
2023-05-23T16:46:42.578Z,15.75
2023-05-23T16:49:11.087Z,13.93
2023-05-23T16:51:39.861Z,16.17
2023-05-23T16:54:08.720Z,14.50
2023-05-23T16:56:38.904Z,16.58
2023-05-23T16:59:08.315Z,14.38
2023-05-23T17:01:36.377Z,15.90
2023-05-23T17:04:05.311Z,17.17
2023-05-23T17:06:33.481Z,17.50
2023-05-23T17:09:01.476Z,17.95
2023-05-23T17:11:29.463Z,16.05
2023-05-23T17:13:57.459Z,15.50
2023-05-23T17:16:26.937Z,16.85
2023-05-23T17:18:54.965Z,16.70
2023-05-23T17:21:22.978Z,18.23
2023-05-23T17:23:51.318Z,16.67
2023-05-23T17:26:19.953Z,15.77
2023-05-23T17:28:48.052Z,15.75
2023-05-23T17:31:16.375Z,16.60
2023-05-23T17:33:46.414Z,18.30
2023-05-23T17:36:14.458Z,16.00
2023-05-23T17:38:42.817Z,23.27
2023-05-23T17:41:10.963Z,15.35
2023-05-23T17:43:38.986Z,15.77
2023-05-23T17:46:06.987Z,17.30
2023-05-23T17:48:46.471Z,17.33
2023-05-23T17:51:17.039Z,16.02
2023-05-23T17:53:45.150Z,18.88
2023-05-23T17:56:13.150Z,14.48
2023-05-23T17:58:43.935Z,19.38
2023-05-23T18:01:13.639Z,16.92
2023-05-23T18:03:41.870Z,16.58
2023-05-23T18:06:09.870Z,23.35
2023-05-23T18:08:39.342Z,18.85
2023-05-23T18:11:07.474Z,19.23
2023-05-23T18:13:35.541Z,23.33
2023-05-23T18:16:03.572Z,19.33
2023-05-23T18:18:31.763Z,19.42
2023-05-23T18:20:59.850Z,19.45
2023-05-23T18:23:27.866Z,25.48
2023-05-23T18:25:57.764Z,16.70
2023-05-23T18:28:25.849Z,17.65
2023-05-23T18:30:53.863Z,20.52
2023-05-23T18:33:22.182Z,21.05
2023-05-23T18:35:51.421Z,18.55
2023-05-23T18:38:19.532Z,20.38
2023-05-23T18:40:47.586Z,26.35
2023-05-23T18:43:17.540Z,20.58
2023-05-23T18:45:45.683Z,23.20
2023-05-23T18:48:14.762Z,19.48
2023-05-23T18:50:43.089Z,19.17
2023-05-23T18:53:11.651Z,16.92
2023-05-23T18:55:39.680Z,17.58
2023-05-23T18:58:07.649Z,16.45
2023-05-23T19:00:37.552Z,14.70
2023-05-23T19:03:05.853Z,17.05
2023-05-23T19:05:33.945Z,16.52
2023-05-23T19:08:03.317Z,16.27
2023-05-23T19:10:31.328Z,18.20
2023-05-23T19:12:59.299Z,20.08
2023-05-23T19:15:27.364Z,18.80
2023-05-23T19:17:56.947Z,17.58
2023-05-23T19:20:25.018Z,18.40
2023-05-23T19:22:53.087Z,17.95
2023-05-23T19:25:21.603Z,19.15
2023-05-23T19:27:49.687Z,19.23
2023-05-23T19:30:17.806Z,19.77
2023-05-23T19:32:45.811Z,19.67
2023-05-23T19:35:17.066Z,19.63
2023-05-23T19:37:45.436Z,17.58
2023-05-23T19:40:14.462Z,19.10
2023-05-23T19:42:42.568Z,20.52
2023-05-23T19:45:11.869Z,18.50
2023-05-23T19:47:39.945Z,18.55
2023-05-23T19:50:10.765Z,14.63
2023-05-23T19:52:40.471Z,19.45
2023-05-23T19:55:09.217Z,19.70
2023-05-23T19:57:37.398Z,19.70
2023-05-23T20:00:07.044Z,22.35
2023-05-23T20:02:35.040Z,22.30
2023-05-23T20:05:03.097Z,20.10
2023-05-23T20:07:31.069Z,25.40
2023-05-23T20:10:00.448Z,24.40
2023-05-23T20:12:28.435Z,23.48
2023-05-23T20:14:57.433Z,24.65
2023-05-23T20:17:25.485Z,25.42
2023-05-23T20:19:53.545Z,24.98
2023-05-23T20:22:21.569Z,25.05
2023-05-23T20:24:49.557Z,22.27
2023-05-23T20:27:18.964Z,21.95
2023-05-23T20:29:47.523Z,24.83
2023-05-23T20:32:15.534Z,23.05
2023-05-23T20:34:43.505Z,24.08
2023-05-23T20:37:13.605Z,25.02
2023-05-23T20:39:42.327Z,22.85
2023-05-23T20:42:11.383Z,27.20
2023-05-23T20:44:40.750Z,24.00
2023-05-23T20:47:10.762Z,32.53
2023-05-23T20:49:42.359Z,28.40
2023-05-23T20:52:10.446Z,26.75
2023-05-23T20:54:38.451Z,24.15
2023-05-23T20:57:06.746Z,23.45
2023-05-23T20:59:34.750Z,22.95
2023-05-23T21:02:05.175Z,22.92
2023-05-23T21:04:33.218Z,19.77
2023-05-23T21:07:01.417Z,23.83
2023-05-23T21:09:29.498Z,23.58
2023-05-23T21:11:58.294Z,24.20
2023-05-23T21:14:26.303Z,24.50
2023-05-23T21:16:54.371Z,22.73
2023-05-23T21:19:23.783Z,20.10
2023-05-23T21:21:53.219Z,22.58
2023-05-23T21:24:21.260Z,22.35
2023-05-23T21:26:49.265Z,23.63
2023-05-23T21:29:17.294Z,23.80
2023-05-23T21:31:45.336Z,24.33
2023-05-23T21:34:23.303Z,23.77
2023-05-23T21:36:54.206Z,26.13
2023-05-23T21:39:22.214Z,23.02
2023-05-23T21:41:50.198Z,26.67
2023-05-23T21:44:18.888Z,22.45
2023-05-23T21:46:47.446Z,21.42
2023-05-23T21:49:15.711Z,26.98
2023-05-23T21:51:44.215Z,26.55
2023-05-23T21:54:13.600Z,26.98
2023-05-23T21:56:41.628Z,23.48
2023-05-23T21:59:09.712Z,23.40
2023-05-23T22:01:37.808Z,24.67
2023-05-23T22:04:05.995Z,22.15
2023-05-23T22:06:34.312Z,23.00
2023-05-23T22:09:02.337Z,21.90
2023-05-23T22:11:34.145Z,24.85
2023-05-23T22:14:02.489Z,28.35
2023-05-23T22:16:32.845Z,24.20
2023-05-23T22:19:02.101Z,23.70
2023-05-23T22:21:30.346Z,22.50
2023-05-23T22:23:58.693Z,21.05
2023-05-23T22:26:26.960Z,22.40
2023-05-23T22:28:56.460Z,21.90
2023-05-23T22:31:24.910Z,23.13
2023-05-23T22:33:53.110Z,22.30
2023-05-23T22:36:22.017Z,24.15
2023-05-23T22:38:50.326Z,22.10
2023-05-23T22:41:18.417Z,25.80
2023-05-23T22:43:46.955Z,21.92
2023-05-23T22:46:16.589Z,25.85
2023-05-23T22:48:45.231Z,24.33
2023-05-23T22:51:14.652Z,22.85
2023-05-23T22:53:43.337Z,23.42
2023-05-23T22:56:11.383Z,27.60
2023-05-23T22:58:39.485Z,24.02
2023-05-23T23:01:07.634Z,23.00
2023-05-23T23:03:37.221Z,25.20
2023-05-23T23:06:07.587Z,24.58
2023-05-23T23:08:35.666Z,22.67
2023-05-23T23:11:03.762Z,24.50
2023-05-23T23:13:31.973Z,24.33
2023-05-23T23:15:59.975Z,23.13
2023-05-23T23:18:28.086Z,27.23
2023-05-23T23:20:57.500Z,25.38
2023-05-23T23:23:25.482Z,28.98
2023-05-23T23:25:53.533Z,27.98
2023-05-23T23:28:21.558Z,30.10
2023-05-23T23:30:49.694Z,26.55
2023-05-23T23:33:17.757Z,28.67
2023-05-23T23:35:48.664Z,29.25
2023-05-23T23:38:18.374Z,30.75
2023-05-23T23:40:46.383Z,30.88
2023-05-23T23:43:14.505Z,26.80
2023-05-23T23:45:42.586Z,28.02
2023-05-23T23:48:10.638Z,27.75
2023-05-23T23:50:38.889Z,26.40
2023-05-23T23:53:07.843Z,28.77
2023-05-23T23:55:37.290Z,29.42
2023-05-23T23:58:05.343Z,31.10
